createdAt,value
2023-02-11T00:00:16.206Z,98749.69
2023-02-11T00:02:46.063Z,98652.22
2023-02-11T00:05:14.311Z,98751.06
2023-02-11T00:07:40.873Z,98748.50
2023-02-11T00:10:08.753Z,98758.19
2023-02-11T00:12:37.312Z,98757.53
2023-02-11T00:15:06.050Z,98749.41
2023-02-11T00:17:33.145Z,98759.31
2023-02-11T00:19:59.840Z,98754.44
2023-02-11T00:22:26.528Z,98679.00
2023-02-11T00:24:53.454Z,98747.97
2023-02-11T00:27:20.026Z,98748.97
2023-02-11T00:29:46.661Z,98743.56
2023-02-11T00:32:13.235Z,98668.22
2023-02-11T00:34:39.809Z,98699.16
2023-02-11T00:37:06.597Z,98230.91
2023-02-11T00:39:33.227Z,98735.63
2023-02-11T00:41:59.930Z,98734.06
2023-02-11T00:44:26.642Z,98741.03
2023-02-11T00:46:53.215Z,98716.03
2023-02-11T00:49:19.741Z,98668.66
2023-02-11T00:51:46.396Z,98737.47
2023-02-11T00:54:12.991Z,98720.75
2023-02-11T00:56:39.622Z,98702.00
2023-02-11T00:59:06.335Z,98713.63
2023-02-11T01:01:33.015Z,98675.72
2023-02-11T01:03:59.572Z,98600.72
2023-02-11T01:06:26.165Z,98727.72
2023-02-11T01:08:52.760Z,98732.22
2023-02-11T01:11:20.599Z,98728.53
2023-02-11T01:13:49.145Z,98706.59
2023-02-11T01:16:16.466Z,98501.44
2023-02-11T01:18:44.532Z,98654.25
2023-02-11T01:21:11.884Z,98712.41
2023-02-11T01:23:38.666Z,98728.41
2023-02-11T01:26:06.003Z,98728.63
2023-02-11T01:28:33.345Z,98728.31
2023-02-11T01:31:01.914Z,98659.59
2023-02-11T01:33:28.954Z,98606.88
2023-02-11T01:35:55.558Z,98542.00
2023-02-11T01:38:25.789Z,98720.94
2023-02-11T01:41:04.046Z,98724.41
2023-02-11T01:43:37.258Z,98708.22
2023-02-11T01:46:36.086Z,98714.91
2023-02-11T01:49:09.746Z,98710.16
2023-02-11T01:51:42.455Z,98706.28
2023-02-11T01:54:29.172Z,98709.59
2023-02-11T01:57:17.636Z,98707.88
2023-02-11T02:00:09.682Z,98725.25
2023-02-11T02:03:00.904Z,98711.56
2023-02-11T02:05:39.543Z,98715.22
2023-02-11T02:08:21.741Z,98659.75
2023-02-11T02:10:53.990Z,98719.44
2023-02-11T02:13:21.282Z,98731.00
2023-02-11T02:15:53.822Z,98714.47
2023-02-11T02:18:29.662Z,98150.25
2023-02-11T02:21:30.566Z,98724.59
2023-02-11T02:24:15.911Z,98724.75
2023-02-11T02:27:12.963Z,98725.81
2023-02-11T02:30:08.926Z,98551.09
2023-02-11T02:32:35.476Z,98714.91
2023-02-11T02:35:02.504Z,98722.91
2023-02-11T02:37:38.455Z,98725.38
2023-02-11T02:40:12.398Z,98689.47
2023-02-11T02:42:41.168Z,98731.50
2023-02-11T02:45:09.292Z,98704.25
2023-02-11T02:47:35.866Z,98712.81
2023-02-11T02:50:04.772Z,98721.91
2023-02-11T02:52:49.357Z,98713.97
2023-02-11T02:55:33.995Z,98720.72
2023-02-11T02:58:27.205Z,98715.78
2023-02-11T03:01:18.148Z,98717.47
2023-02-11T03:04:13.328Z,98722.50
2023-02-11T03:06:42.838Z,98728.06
2023-02-11T03:09:20.069Z,98718.34
2023-02-11T03:11:46.612Z,98676.72
2023-02-11T03:14:17.308Z,98716.22
2023-02-11T03:16:46.015Z,98718.75
2023-02-11T03:19:28.270Z,98712.97
2023-02-11T03:21:56.834Z,98690.72
2023-02-11T03:24:35.674Z,98709.31
2023-02-11T03:27:10.786Z,98714.69
2023-02-11T03:29:44.482Z,98707.97
2023-02-11T03:32:17.510Z,98705.72
2023-02-11T03:34:54.968Z,98709.94
2023-02-11T03:37:42.515Z,98711.72
2023-02-11T03:40:15.158Z,98703.47
2023-02-11T03:42:54.199Z,98702.50
2023-02-11T03:45:23.723Z,98680.69
2023-02-11T03:47:56.100Z,98699.03
2023-02-11T03:50:24.103Z,98704.19
2023-02-11T03:52:51.736Z,98698.66
2023-02-11T03:55:20.578Z,98691.03
2023-02-11T03:57:47.910Z,98702.97
2023-02-11T04:00:15.348Z,98693.97
2023-02-11T04:02:43.071Z,98621.53
2023-02-11T04:05:12.659Z,98674.00
2023-02-11T04:07:39.242Z,98682.88
2023-02-11T04:10:06.592Z,98641.94
2023-02-11T04:12:33.160Z,98668.31
2023-02-11T04:14:59.723Z,98683.91
2023-02-11T04:17:26.232Z,98692.31
2023-02-11T04:19:52.765Z,98604.84
2023-02-11T04:22:19.450Z,98696.50
2023-02-11T04:24:46.080Z,98696.22
2023-02-11T04:27:12.762Z,98614.72
2023-02-11T04:29:39.447Z,98701.66
2023-02-11T04:32:06.114Z,98696.34
2023-02-11T04:34:33.440Z,98715.44
2023-02-11T04:37:00.144Z,98645.28
2023-02-11T04:39:26.798Z,98695.53
2023-02-11T04:41:53.356Z,98689.72
2023-02-11T04:44:19.971Z,98615.53
2023-02-11T04:46:46.578Z,98683.13
2023-02-11T04:49:15.434Z,98616.72
2023-02-11T04:51:42.424Z,98680.63
2023-02-11T04:54:09.082Z,98624.09
2023-02-11T04:56:35.692Z,98682.31
2023-02-11T04:59:02.467Z,98669.47
2023-02-11T05:01:29.105Z,98632.78
2023-02-11T05:03:55.880Z,98674.78
2023-02-11T05:06:22.854Z,98678.50
2023-02-11T05:08:49.466Z,98673.56
2023-02-11T05:11:21.056Z,98677.41
2023-02-11T05:13:48.294Z,98562.34
2023-02-11T05:16:16.228Z,98662.47
2023-02-11T05:18:44.030Z,98627.00
2023-02-11T05:21:14.541Z,98663.41
2023-02-11T05:23:41.591Z,98657.41
2023-02-11T05:26:08.703Z,98558.19
2023-02-11T05:28:35.667Z,98597.53
2023-02-11T05:31:02.800Z,98594.09
2023-02-11T05:33:29.460Z,98667.59
2023-02-11T05:36:00.466Z,98671.66
2023-02-11T05:38:27.732Z,98605.03
2023-02-11T05:40:54.689Z,98649.94
2023-02-11T05:43:21.621Z,98549.41
2023-02-11T05:45:48.504Z,98645.50
2023-02-11T05:48:15.903Z,98670.25
2023-02-11T05:50:43.178Z,98632.81
2023-02-11T05:53:09.990Z,98651.56
2023-02-11T05:55:36.963Z,98651.63
2023-02-11T05:58:04.126Z,98696.13
2023-02-11T06:00:31.178Z,98626.94
2023-02-11T06:02:57.953Z,98680.09
2023-02-11T06:05:24.636Z,98673.47
2023-02-11T06:07:51.386Z,98678.34
2023-02-11T06:10:18.018Z,98676.25
2023-02-11T06:12:44.964Z,98679.41
2023-02-11T06:15:11.588Z,98681.91
2023-02-11T06:17:38.181Z,98668.13
2023-02-11T06:20:07.140Z,98666.78
2023-02-11T06:22:35.027Z,98660.41
2023-02-11T06:25:02.431Z,98636.19
2023-02-11T06:27:29.698Z,98694.06
2023-02-11T06:29:56.420Z,98660.84
2023-02-11T06:32:43.464Z,98658.84
2023-02-11T06:35:11.883Z,98654.50
2023-02-11T06:37:38.818Z,98669.78
2023-02-11T06:40:05.864Z,98651.63
2023-02-11T06:42:32.476Z,98651.03
2023-02-11T06:44:59.094Z,98650.84
2023-02-11T06:47:25.717Z,98630.09
2023-02-11T06:49:52.313Z,98623.88
2023-02-11T06:52:18.958Z,98650.63
2023-02-11T06:54:45.551Z,98648.16
2023-02-11T06:57:12.130Z,98643.31
2023-02-11T06:59:38.761Z,98639.53
2023-02-11T07:02:05.355Z,98623.13
2023-02-11T07:04:32.022Z,98636.13
2023-02-11T07:06:58.686Z,98543.28
2023-02-11T07:09:25.299Z,98613.09
2023-02-11T07:11:51.979Z,98233.59
2023-02-11T07:14:18.651Z,98622.47
2023-02-11T07:16:45.212Z,98620.13
2023-02-11T07:19:11.816Z,98619.28
2023-02-11T07:21:38.423Z,98618.94
2023-02-11T07:24:11.096Z,98621.97
2023-02-11T07:26:37.915Z,98615.94
2023-02-11T07:29:04.772Z,98386.94
2023-02-11T07:31:32.105Z,98611.75
2023-02-11T07:34:00.979Z,98606.13
2023-02-11T07:36:29.720Z,98587.47
2023-02-11T07:38:56.557Z,98602.31
2023-02-11T07:41:24.465Z,98576.22
2023-02-11T07:43:51.814Z,98597.34
2023-02-11T07:46:22.297Z,98421.88
2023-02-11T07:48:49.101Z,98604.34
2023-02-11T07:51:24.994Z,98544.31
2023-02-11T07:53:52.509Z,98586.25
2023-02-11T07:56:21.034Z,98607.34
2023-02-11T07:58:48.174Z,98601.41
2023-02-11T08:01:20.402Z,98587.06
2023-02-11T08:03:47.041Z,98604.88
2023-02-11T08:06:16.392Z,98563.97
2023-02-11T08:08:43.586Z,98604.41
2023-02-11T08:11:13.987Z,98573.84
2023-02-11T08:13:41.490Z,98600.03
2023-02-11T08:16:08.680Z,98602.19
2023-02-11T08:18:36.357Z,98582.72
2023-02-11T08:21:07.836Z,98487.97
2023-02-11T08:23:38.607Z,98596.88
2023-02-11T08:26:07.430Z,98602.50
2023-02-11T08:28:38.416Z,98620.88
2023-02-11T08:31:16.297Z,98560.19
2023-02-11T08:33:43.453Z,98586.91
2023-02-11T08:36:11.575Z,98582.97
2023-02-11T08:38:38.451Z,98483.31
2023-02-11T08:41:05.063Z,98575.06
2023-02-11T08:43:33.384Z,98578.81
2023-02-11T08:46:02.208Z,98573.69
2023-02-11T08:48:29.466Z,98575.81
2023-02-11T08:50:56.708Z,98492.72
2023-02-11T08:53:24.044Z,98563.56
2023-02-11T08:55:52.624Z,98578.66
2023-02-11T08:58:20.187Z,98574.97
2023-02-11T09:00:47.567Z,98495.16
2023-02-11T09:03:17.082Z,98569.31
2023-02-11T09:05:50.028Z,98560.50
2023-02-11T09:08:17.234Z,98508.94
2023-02-11T09:10:44.004Z,98557.41
2023-02-11T09:13:10.931Z,98551.13
2023-02-11T09:15:37.588Z,98490.69
2023-02-11T09:18:05.492Z,98463.16
2023-02-11T09:20:32.530Z,98418.66
2023-02-11T09:22:59.474Z,98535.19
2023-02-11T09:25:26.715Z,98533.41
2023-02-11T09:27:53.873Z,98450.88
2023-02-11T09:30:21.082Z,98511.63
2023-02-11T09:32:47.918Z,98510.38
2023-02-11T09:35:14.523Z,98503.81
2023-02-11T09:37:41.271Z,98450.25
2023-02-11T09:40:08.343Z,98474.84
2023-02-11T09:42:51.141Z,98483.53
2023-02-11T09:45:22.126Z,98489.38
2023-02-11T09:47:54.783Z,98479.56
2023-02-11T09:50:30.687Z,98443.25
2023-02-11T09:53:15.229Z,98468.47
2023-02-11T09:55:46.781Z,98471.75
2023-02-11T09:58:16.516Z,98421.25
2023-02-11T10:00:57.257Z,98377.47
2023-02-11T10:03:58.037Z,98451.78
2023-02-11T10:06:39.408Z,98433.00
2023-02-11T10:09:25.753Z,98434.59
2023-02-11T10:12:01.285Z,98430.56
2023-02-11T10:14:54.037Z,98420.34
2023-02-11T10:17:20.665Z,98414.34
2023-02-11T10:19:56.173Z,98411.84
2023-02-11T10:22:35.112Z,98409.19
2023-02-11T10:25:23.987Z,98404.00
2023-02-11T10:27:52.202Z,98405.88
2023-02-11T10:30:21.569Z,98392.28
2023-02-11T10:33:04.809Z,98368.19
2023-02-11T10:35:32.423Z,98384.59
2023-02-11T10:37:59.795Z,98377.41
2023-02-11T10:40:28.780Z,98317.09
2023-02-11T10:43:01.093Z,98375.72
2023-02-11T10:45:36.173Z,98368.94
2023-02-11T10:48:27.346Z,98359.44
2023-02-11T10:51:27.549Z,98359.22
2023-02-11T10:54:08.200Z,98348.50
2023-02-11T10:56:37.271Z,98355.00
2023-02-11T10:59:28.923Z,98345.13
2023-02-11T11:02:07.983Z,98030.00
2023-02-11T11:04:39.748Z,98332.66
2023-02-11T11:07:16.994Z,98299.38
2023-02-11T11:10:02.737Z,98293.66
2023-02-11T11:12:35.144Z,98320.25
2023-02-11T11:15:13.619Z,98312.03
2023-02-11T11:17:40.436Z,98311.56
2023-02-11T11:20:33.584Z,98288.34
2023-02-11T11:23:17.449Z,98306.28
2023-02-11T11:25:58.492Z,98300.25
2023-02-11T11:28:27.971Z,98295.63
2023-02-11T11:30:57.009Z,98295.72
2023-02-11T11:33:28.473Z,98276.81
2023-02-11T11:36:02.815Z,98274.84
2023-02-11T11:38:31.370Z,98207.59
2023-02-11T11:41:34.127Z,98265.00
2023-02-11T11:44:24.372Z,98257.25
2023-02-11T11:47:07.361Z,98253.81
2023-02-11T11:49:39.885Z,98256.16
2023-02-11T11:52:12.390Z,98249.03
2023-02-11T11:54:41.720Z,98239.75
2023-02-11T11:57:17.737Z,98191.94
2023-02-11T11:59:44.732Z,98238.38
2023-02-11T12:02:50.855Z,98234.31
2023-02-11T12:05:35.619Z,98231.22
2023-02-11T12:08:13.903Z,98222.25
2023-02-11T12:10:50.616Z,98224.78
2023-02-11T12:13:23.387Z,98216.09
2023-02-11T12:15:57.269Z,98219.72
2023-02-11T12:18:47.851Z,98153.50
2023-02-11T12:21:33.249Z,98207.78
2023-02-11T12:24:30.696Z,98211.31
2023-02-11T12:27:09.560Z,98143.56
2023-02-11T12:30:01.104Z,98134.03
2023-02-11T12:32:39.307Z,97730.06
2023-02-11T12:35:34.377Z,98191.31
2023-02-11T12:38:11.940Z,98192.25
2023-02-11T12:41:40.039Z,98194.25
2023-02-11T12:44:15.924Z,98193.69
2023-02-11T12:47:05.690Z,98184.47
2023-02-11T12:50:09.257Z,98177.09
2023-02-11T12:52:45.660Z,98180.72
2023-02-11T12:55:37.219Z,98172.75
2023-02-11T12:58:04.538Z,98165.31
2023-02-11T13:00:36.895Z,98174.69
2023-02-11T13:03:11.202Z,98168.72
2023-02-11T13:05:46.594Z,98157.19
2023-02-11T13:08:36.768Z,98088.19
2023-02-11T13:11:16.170Z,98170.97
2023-02-11T13:13:45.811Z,98159.53
2023-02-11T13:16:27.639Z,98161.75
2023-02-11T13:19:30.234Z,98159.44
2023-02-11T13:22:05.935Z,98154.88
2023-02-11T13:24:57.873Z,98152.41
2023-02-11T13:27:41.156Z,98147.59
2023-02-11T13:30:40.964Z,98148.09
2023-02-11T13:33:17.926Z,98148.41
2023-02-11T13:36:12.408Z,98149.59
2023-02-11T13:38:39.344Z,98078.22
2023-02-11T13:41:30.541Z,98147.44
2023-02-11T13:44:22.357Z,98138.78
2023-02-11T13:47:01.979Z,98138.94
2023-02-11T13:49:42.094Z,98141.13
2023-02-11T13:52:20.740Z,98137.44
2023-02-11T13:54:51.309Z,98135.63
2023-02-11T13:57:20.622Z,98134.94
2023-02-11T13:59:50.353Z,98094.69
2023-02-11T14:02:35.377Z,98132.94
2023-02-11T14:05:23.675Z,98122.41
2023-02-11T14:08:30.883Z,98130.59
2023-02-11T14:11:35.226Z,98111.09
2023-02-11T14:14:24.286Z,98106.41
2023-02-11T14:17:00.350Z,98048.16
2023-02-11T14:19:34.904Z,98107.50
2023-02-11T14:22:06.580Z,98109.19
2023-02-11T14:24:33.153Z,98103.28
2023-02-11T14:27:07.732Z,98086.44
2023-02-11T14:29:42.559Z,98081.59
2023-02-11T14:32:49.090Z,98105.09
2023-02-11T14:35:34.988Z,98032.69
2023-02-11T14:38:01.744Z,98094.28
2023-02-11T14:40:34.998Z,98095.59
2023-02-11T14:43:13.156Z,98081.47
2023-02-11T14:45:40.987Z,98100.28
2023-02-11T14:48:18.835Z,98090.72
2023-02-11T14:50:58.806Z,98098.03
2023-02-11T14:53:27.378Z,98072.75
2023-02-11T14:55:55.400Z,98076.50
2023-02-11T14:58:23.282Z,98093.84
2023-02-11T15:00:53.186Z,98095.63
2023-02-11T15:03:42.658Z,98099.03
2023-02-11T15:06:22.281Z,98096.91
2023-02-11T15:08:55.184Z,98083.28
2023-02-11T15:11:25.172Z,98105.97
2023-02-11T15:13:55.076Z,98030.81
2023-02-11T15:16:27.303Z,98091.66
2023-02-11T15:19:03.304Z,98093.09
2023-02-11T15:21:32.481Z,98089.66
2023-02-11T15:24:26.451Z,98075.69
2023-02-11T15:27:21.095Z,98095.72
2023-02-11T15:29:50.627Z,98094.31
2023-02-11T15:32:19.967Z,98006.00
2023-02-11T15:34:48.463Z,98028.28
2023-02-11T15:37:35.785Z,98089.59
2023-02-11T15:40:20.326Z,98114.84
2023-02-11T15:42:58.743Z,98093.84
2023-02-11T15:45:29.006Z,98089.59
2023-02-11T15:48:08.012Z,98086.22
2023-02-11T15:50:37.209Z,98083.34
2023-02-11T15:53:33.434Z,98099.81
2023-02-11T15:56:11.962Z,98093.00
2023-02-11T15:58:41.038Z,98090.41
2023-02-11T16:01:09.952Z,98083.91
2023-02-11T16:03:36.613Z,98002.66
2023-02-11T16:06:20.138Z,98087.75
2023-02-11T16:08:56.944Z,98093.22
2023-02-11T16:11:27.774Z,98088.56
2023-02-11T16:13:54.432Z,98096.19
2023-02-11T16:16:31.391Z,98093.31
2023-02-11T16:19:05.967Z,98099.88
2023-02-11T16:21:42.753Z,98110.78
2023-02-11T16:24:20.051Z,98029.38
2023-02-11T16:26:50.307Z,98117.66
2023-02-11T16:29:22.700Z,98114.09
2023-02-11T16:31:50.482Z,98131.25
2023-02-11T16:34:22.516Z,98093.81
2023-02-11T16:36:50.784Z,98120.19
2023-02-11T16:39:19.253Z,98125.09
2023-02-11T16:41:45.848Z,98117.19
2023-02-11T16:44:12.424Z,98115.09
2023-02-11T16:46:39.185Z,97650.00
2023-02-11T16:49:20.645Z,97991.00
2023-02-11T16:51:50.238Z,98105.44
2023-02-11T16:54:18.779Z,98117.66
2023-02-11T16:56:45.413Z,98156.41
2023-02-11T16:59:12.254Z,98014.16
2023-02-11T17:01:40.552Z,98119.97
2023-02-11T17:04:07.513Z,98079.34
2023-02-11T17:06:35.078Z,98127.19
2023-02-11T17:09:01.940Z,98139.22
2023-02-11T17:11:28.565Z,98128.91
2023-02-11T17:13:55.192Z,98120.28
2023-02-11T17:16:25.046Z,98106.41
2023-02-11T17:18:52.694Z,98089.38
2023-02-11T17:21:19.312Z,98111.66
2023-02-11T17:23:46.126Z,98018.31
2023-02-11T17:26:12.868Z,97610.72
2023-02-11T17:28:39.479Z,98115.66
2023-02-11T17:31:09.996Z,98105.88
2023-02-11T17:33:37.838Z,98104.31
2023-02-11T17:36:09.000Z,98086.91
2023-02-11T17:38:37.319Z,98125.56
2023-02-11T17:41:05.580Z,98111.97
2023-02-11T17:43:32.244Z,98120.75
2023-02-11T17:45:59.044Z,98113.97
2023-02-11T17:48:25.755Z,98116.13
2023-02-11T17:50:52.342Z,98114.78
2023-02-11T17:53:18.941Z,98110.22
2023-02-11T17:55:45.537Z,98114.91
2023-02-11T17:58:12.124Z,98124.69
2023-02-11T18:00:38.696Z,98123.66
2023-02-11T18:03:05.302Z,98121.47
2023-02-11T18:05:36.716Z,98117.13
2023-02-11T18:08:06.896Z,98102.97
2023-02-11T18:10:34.168Z,98061.13
2023-02-11T18:13:01.376Z,98129.69
2023-02-11T18:15:28.020Z,98118.25
2023-02-11T18:17:55.530Z,98011.69
2023-02-11T18:20:22.165Z,98124.50
2023-02-11T18:22:48.817Z,98124.78
2023-02-11T18:25:16.240Z,98123.69
2023-02-11T18:27:42.980Z,98082.66
2023-02-11T18:30:15.105Z,98120.97
2023-02-11T18:32:41.692Z,98131.84
2023-02-11T18:35:14.767Z,98131.34
2023-02-11T18:37:42.626Z,98132.69
2023-02-11T18:40:11.088Z,98103.59
2023-02-11T18:42:37.833Z,98075.59
2023-02-11T18:45:09.924Z,98087.25
2023-02-11T18:47:40.408Z,98129.69
2023-02-11T18:50:11.266Z,98110.09
2023-02-11T18:52:38.500Z,98122.88
2023-02-11T18:55:06.077Z,98130.22
2023-02-11T18:57:32.752Z,98084.53
2023-02-11T18:59:59.446Z,98127.25
2023-02-11T19:02:26.338Z,98128.06
2023-02-11T19:04:52.984Z,98103.00
2023-02-11T19:07:19.566Z,98119.06
2023-02-11T19:09:46.171Z,98122.03
2023-02-11T19:12:12.814Z,98084.53
2023-02-11T19:14:39.421Z,98095.13
2023-02-11T19:17:07.618Z,98115.53
2023-02-11T19:19:36.582Z,98103.03
2023-02-11T19:22:10.563Z,98104.66
2023-02-11T19:24:38.003Z,98090.53
2023-02-11T19:27:05.199Z,98094.84
2023-02-11T19:29:35.090Z,98076.91
2023-02-11T19:32:03.857Z,98060.56
2023-02-11T19:34:30.496Z,98110.06
2023-02-11T19:36:59.553Z,98085.31
2023-02-11T19:39:26.337Z,98077.44
2023-02-11T19:41:53.551Z,98081.72
2023-02-11T19:44:20.247Z,98076.84
2023-02-11T19:46:48.379Z,98093.75
2023-02-11T19:49:17.643Z,98080.69
2023-02-11T19:51:44.276Z,98082.59
2023-02-11T19:54:10.932Z,98091.50
2023-02-11T19:56:37.992Z,97932.69
2023-02-11T19:59:05.028Z,98018.06
2023-02-11T20:01:31.730Z,98068.66
2023-02-11T20:03:58.484Z,98094.22
2023-02-11T20:06:30.434Z,98051.19
2023-02-11T20:08:59.511Z,98082.25
2023-02-11T20:11:28.214Z,98020.75
2023-02-11T20:13:55.508Z,98058.59
2023-02-11T20:16:36.851Z,98080.06
2023-02-11T20:19:14.946Z,98061.00
2023-02-11T20:21:41.513Z,98070.28
2023-02-11T20:24:08.127Z,98071.91
2023-02-11T20:26:34.980Z,98073.25
2023-02-11T20:29:04.903Z,98070.78
2023-02-11T20:31:35.024Z,98053.88
2023-02-11T20:34:02.124Z,98088.13
2023-02-11T20:36:32.245Z,98060.44
2023-02-11T20:39:00.513Z,98068.59
2023-02-11T20:41:30.888Z,97976.13
2023-02-11T20:43:59.970Z,98038.72
2023-02-11T20:46:28.884Z,97979.38
2023-02-11T20:48:57.198Z,98036.28
2023-02-11T20:51:27.585Z,98048.47
2023-02-11T20:53:54.687Z,97965.75
2023-02-11T20:56:24.526Z,98047.94
2023-02-11T20:58:53.203Z,98044.63
2023-02-11T21:01:25.338Z,98032.16
2023-02-11T21:03:54.906Z,98036.47
2023-02-11T21:06:23.300Z,97991.84
2023-02-11T21:08:50.054Z,98027.53
2023-02-11T21:11:16.728Z,98015.88
2023-02-11T21:13:43.967Z,97951.16
2023-02-11T21:16:17.824Z,97980.00
2023-02-11T21:18:44.426Z,97986.47
2023-02-11T21:21:11.014Z,98010.41
2023-02-11T21:23:41.719Z,98010.44
2023-02-11T21:26:08.576Z,98007.72
2023-02-11T21:28:35.721Z,98009.91
2023-02-11T21:31:02.995Z,98002.28
2023-02-11T21:33:30.398Z,97962.63
2023-02-11T21:36:02.582Z,97910.91
2023-02-11T21:38:29.844Z,97993.28
2023-02-11T21:41:02.028Z,97992.19
2023-02-11T21:43:28.570Z,97947.31
2023-02-11T21:45:55.437Z,97993.53
2023-02-11T21:48:23.862Z,97982.41
2023-02-11T21:50:50.454Z,97977.22
2023-02-11T21:53:17.511Z,97964.19
2023-02-11T21:55:44.225Z,97972.34
2023-02-11T21:58:12.859Z,97976.69
2023-02-11T22:00:39.573Z,97814.72
2023-02-11T22:03:06.239Z,97956.59
2023-02-11T22:05:32.813Z,97823.66
2023-02-11T22:07:59.415Z,97946.31
2023-02-11T22:10:25.995Z,97901.47
2023-02-11T22:12:52.584Z,97954.41
2023-02-11T22:15:19.558Z,97944.06
2023-02-11T22:17:46.177Z,97959.84
2023-02-11T22:20:12.904Z,97960.97
2023-02-11T22:22:39.489Z,97926.19
2023-02-11T22:25:06.498Z,97863.66
2023-02-11T22:27:33.036Z,97946.25
2023-02-11T22:29:59.684Z,97948.72
2023-02-11T22:32:26.384Z,97820.75
2023-02-11T22:34:53.533Z,97797.38
2023-02-11T22:37:20.617Z,97924.81
2023-02-11T22:39:47.324Z,97938.72
2023-02-11T22:42:13.976Z,97936.56
2023-02-11T22:44:40.570Z,97911.59
2023-02-11T22:47:07.218Z,97859.16
2023-02-11T22:49:35.635Z,97926.84
2023-02-11T22:52:02.210Z,97920.06
2023-02-11T22:54:28.969Z,97935.53
2023-02-11T22:56:55.628Z,97913.81
2023-02-11T22:59:22.309Z,97906.22
2023-02-11T23:01:49.097Z,97899.19
2023-02-11T23:04:19.116Z,97892.13
2023-02-11T23:06:47.686Z,97840.53
2023-02-11T23:09:14.376Z,97802.25
2023-02-11T23:11:41.689Z,97889.94
2023-02-11T23:14:10.187Z,97889.69
2023-02-11T23:16:36.868Z,97912.78
2023-02-11T23:19:06.677Z,97863.09
2023-02-11T23:21:37.297Z,97867.69
2023-02-11T23:24:12.178Z,97883.16
2023-02-11T23:26:40.290Z,97947.53
2023-02-11T23:29:06.939Z,97867.69
2023-02-11T23:31:37.486Z,97853.03
2023-02-11T23:34:04.474Z,97864.16
2023-02-11T23:36:31.557Z,97857.91
2023-02-11T23:38:58.843Z,97863.63
2023-02-11T23:41:25.419Z,97866.56
2023-02-11T23:43:54.025Z,97859.53
2023-02-11T23:46:22.313Z,97865.50
2023-02-11T23:48:51.438Z,97816.09
2023-02-11T23:51:18.646Z,97863.88
2023-02-11T23:53:49.389Z,97776.22
2023-02-11T23:56:24.696Z,97857.91
2023-02-11T23:58:54.192Z,97853.53
